AFR22 TFFF-TFFF
Flight info
| Callsign | AFR22 |
|---|---|
| Flight time | 0h 16m |
| Altitude | 5000 |
| Route | TFFF |
| Aircraft | A20N/M-SDE2E3FGHIRWXY/LB1 |
Departure
| Time | 2026-04-27 20:40 |
|---|---|
| Airport | Martinique Aimé Césaire International Airport (TFFF) |
Arrival
| Time | 2026-04-27 20:57 |
|---|---|
| Airport | Martinique Aimé Césaire International Airport (TFFF) |
| Time | Latitude | Longitude | Altitude | Speed | Heading |
|---|---|---|---|---|---|
| 2026-04-27 20:24 | 14.59466 | -60.99968 | 11 ft | 0 kts | 8° |
| 2026-04-27 20:33 | 14.59455 | -60.99969 | 25 ft | 2 kts | 8° |
| 2026-04-27 20:34 | 14.59439 | -60.99972 | 24 ft | 2 kts | 8° |
| 2026-04-27 20:34 | 14.59423 | -60.99974 | 24 ft | 2 kts | 8° |
| 2026-04-27 20:34 | 14.59407 | -60.99976 | 23 ft | 2 kts | 8° |
| 2026-04-27 20:34 | 14.59391 | -60.99979 | 25 ft | 2 kts | 8° |
| 2026-04-27 20:35 | 14.59375 | -60.99980 | 24 ft | 2 kts | 329° |
| 2026-04-27 20:35 | 14.59369 | -60.99972 | 25 ft | 0 kts | 265° |
| 2026-04-27 20:36 | 14.59368 | -60.99978 | 25 ft | 3 kts | 262° |
| 2026-04-27 20:36 | 14.59354 | -61.00023 | 23 ft | 10 kts | 244° |
| 2026-04-27 20:37 | 14.59309 | -61.00109 | 23 ft | 14 kts | 257° |
| 2026-04-27 20:37 | 14.59293 | -61.00207 | 22 ft | 14 kts | 261° |
| 2026-04-27 20:37 | 14.59276 | -61.00319 | 22 ft | 18 kts | 261° |
| 2026-04-27 20:37 | 14.59252 | -61.00452 | 23 ft | 19 kts | 261° |
| 2026-04-27 20:38 | 14.59229 | -61.00585 | 24 ft | 19 kts | 258° |
| 2026-04-27 20:38 | 14.59201 | -61.00706 | 23 ft | 12 kts | 260° |
| 2026-04-27 20:38 | 14.59186 | -61.00818 | 22 ft | 21 kts | 259° |
| 2026-04-27 20:38 | 14.59160 | -61.00986 | 23 ft | 24 kts | 262° |
| 2026-04-27 20:39 | 14.59129 | -61.01158 | 23 ft | 25 kts | 259° |
| 2026-04-27 20:39 | 14.59091 | -61.01337 | 23 ft | 20 kts | 251° |
| 2026-04-27 20:39 | 14.59055 | -61.01360 | 23 ft | 6 kts | 185° |
| 2026-04-27 20:39 | 14.58974 | -61.01349 | 24 ft | 15 kts | 172° |
| 2026-04-27 20:40 | 14.58933 | -61.01313 | 25 ft | 4 kts | 77° |
| 2026-04-27 20:40 | 14.58947 | -61.01246 | 25 ft | 34 kts | 80° |
| 2026-04-27 20:40 | 14.59050 | -61.00658 | 28 ft | 133 kts | 83° |
| 2026-04-27 20:40 | 14.59203 | -60.99659 | 874 ft | 140 kts | 83° |
| 2026-04-27 20:41 | 14.59329 | -60.98600 | 1727 ft | 160 kts | 84° |
| 2026-04-27 20:41 | 14.59501 | -60.97361 | 2403 ft | 189 kts | 82° |
| 2026-04-27 20:41 | 14.59736 | -60.95933 | 2836 ft | 214 kts | 80° |
| 2026-04-27 20:41 | 14.60008 | -60.94396 | 2968 ft | 217 kts | 81° |
| 2026-04-27 20:42 | 14.60296 | -60.92834 | 3008 ft | 230 kts | 79° |
| 2026-04-27 20:42 | 14.60607 | -60.91164 | 2994 ft | 247 kts | 80° |
| 2026-04-27 20:42 | 14.60756 | -60.89380 | 2998 ft | 251 kts | 95° |
| 2026-04-27 20:42 | 14.60278 | -60.87672 | 3009 ft | 252 kts | 117° |
| 2026-04-27 20:43 | 14.59120 | -60.86314 | 2992 ft | 255 kts | 143° |
| 2026-04-27 20:43 | 14.57505 | -60.85487 | 2993 ft | 260 kts | 155° |
| 2026-04-27 20:43 | 14.55786 | -60.84937 | 2989 ft | 262 kts | 162° |
| 2026-04-27 20:43 | 14.54000 | -60.84527 | 3002 ft | 262 kts | 165° |
| 2026-04-27 20:44 | 14.52192 | -60.84174 | 2988 ft | 262 kts | 166° |
| 2026-04-27 20:44 | 14.50420 | -60.83827 | 2999 ft | 262 kts | 165° |
| 2026-04-27 20:44 | 14.48597 | -60.83566 | 2986 ft | 265 kts | 176° |
| 2026-04-27 20:44 | 14.46764 | -60.83875 | 3011 ft | 270 kts | 196° |
| 2026-04-27 20:45 | 14.45205 | -60.84939 | 2992 ft | 277 kts | 226° |
| 2026-04-27 20:45 | 14.44264 | -60.86680 | 3006 ft | 279 kts | 247° |
| 2026-04-27 20:45 | 14.43732 | -60.88610 | 2980 ft | 278 kts | 257° |
| 2026-04-27 20:45 | 14.43424 | -60.90569 | 2992 ft | 280 kts | 262° |
| 2026-04-27 20:46 | 14.43208 | -60.92576 | 2995 ft | 280 kts | 263° |
| 2026-04-27 20:46 | 14.43012 | -60.94559 | 2984 ft | 281 kts | 263° |
| 2026-04-27 20:46 | 14.42794 | -60.96574 | 2991 ft | 281 kts | 262° |
| 2026-04-27 20:46 | 14.42549 | -60.98576 | 2992 ft | 281 kts | 261° |
| 2026-04-27 20:47 | 14.42283 | -61.00552 | 2991 ft | 280 kts | 261° |
| 2026-04-27 20:47 | 14.41996 | -61.02549 | 2995 ft | 281 kts | 260° |
| 2026-04-27 20:47 | 14.41699 | -61.04549 | 2992 ft | 281 kts | 260° |
| 2026-04-27 20:47 | 14.41401 | -61.06524 | 2989 ft | 282 kts | 260° |
| 2026-04-27 20:48 | 14.41115 | -61.08530 | 2992 ft | 282 kts | 265° |
| 2026-04-27 20:48 | 14.41151 | -61.09839 | 2994 ft | 268 kts | 279° |
| 2026-04-27 20:48 | 14.41605 | -61.12228 | 3024 ft | 238 kts | 284° |
| 2026-04-27 20:48 | 14.42029 | -61.13814 | 2845 ft | 227 kts | 288° |
| 2026-04-27 20:49 | 14.42691 | -61.15254 | 2603 ft | 218 kts | 308° |
| 2026-04-27 20:49 | 14.43764 | -61.16275 | 2362 ft | 205 kts | 334° |
| 2026-04-27 20:49 | 14.45030 | -61.16889 | 2118 ft | 197 kts | 343° |
| 2026-04-27 20:49 | 14.46298 | -61.17369 | 1999 ft | 195 kts | 346° |
| 2026-04-27 20:50 | 14.47614 | -61.17834 | 1998 ft | 205 kts | 347° |
| 2026-04-27 20:50 | 14.48980 | -61.18307 | 1990 ft | 208 kts | 346° |
| 2026-04-27 20:50 | 14.50362 | -61.18786 | 1991 ft | 210 kts | 346° |
| 2026-04-27 20:50 | 14.51735 | -61.19262 | 1993 ft | 210 kts | 345° |
| 2026-04-27 20:51 | 14.53136 | -61.19696 | 1992 ft | 209 kts | 354° |
| 2026-04-27 20:51 | 14.54517 | -61.19515 | 1984 ft | 198 kts | 35° |
| 2026-04-27 20:51 | 14.55439 | -61.18567 | 2005 ft | 175 kts | 59° |
| 2026-04-27 20:51 | 14.55966 | -61.17573 | 2019 ft | 143 kts | 68° |
| 2026-04-27 20:52 | 14.56262 | -61.16692 | 2007 ft | 120 kts | 78° |
| 2026-04-27 20:52 | 14.56442 | -61.15868 | 2013 ft | 116 kts | 81° |
| 2026-04-27 20:52 | 14.56583 | -61.15046 | 2001 ft | 116 kts | 82° |
| 2026-04-27 20:52 | 14.56720 | -61.14231 | 1995 ft | 116 kts | 81° |
| 2026-04-27 20:53 | 14.56863 | -61.13408 | 1994 ft | 116 kts | 81° |
| 2026-04-27 20:53 | 14.57006 | -61.12588 | 1999 ft | 116 kts | 82° |
| 2026-04-27 20:53 | 14.57150 | -61.11759 | 1902 ft | 117 kts | 81° |
| 2026-04-27 20:53 | 14.57292 | -61.10931 | 1741 ft | 116 kts | 81° |
| 2026-04-27 20:54 | 14.57569 | -61.09300 | 1437 ft | 116 kts | 81° |
| 2026-04-27 20:54 | 14.57709 | -61.08483 | 1284 ft | 115 kts | 81° |
| 2026-04-27 20:54 | 14.57846 | -61.07683 | 1132 ft | 115 kts | 82° |
| 2026-04-27 20:55 | 14.57987 | -61.06859 | 993 ft | 116 kts | 82° |
| 2026-04-27 20:55 | 14.58126 | -61.06040 | 838 ft | 115 kts | 82° |
| 2026-04-27 20:55 | 14.58266 | -61.05225 | 705 ft | 115 kts | 84° |
| 2026-04-27 20:55 | 14.58403 | -61.04420 | 554 ft | 115 kts | 84° |
| 2026-04-27 20:56 | 14.58541 | -61.03607 | 401 ft | 116 kts | 81° |
| 2026-04-27 20:56 | 14.58681 | -61.02789 | 253 ft | 114 kts | 82° |
| 2026-04-27 20:56 | 14.58818 | -61.01989 | 98 ft | 113 kts | 83° |
| 2026-04-27 20:56 | 14.58963 | -61.01103 | 94 ft | 156 kts | 82° |
| 2026-04-27 20:57 | 14.59170 | -60.99748 | 178 ft | 224 kts | 83° |
| 2026-04-27 20:57 | 14.59339 | -60.98599 | 239 ft | 262 kts | 84° |
| 2026-04-27 20:57 | 14.59468 | -60.97702 | 362 ft | 0 kts | 82° |